Time;durP1;ratioP1;P1;durP2;ratioP2;P2;SDS_P1;SDS_P2;PMS_P1;PMS_P2;Temp;Humidity;BMP_temperature;BMP_pressure;BME280_temperature;BME280_humidity;BME280_pressure;Samples;Min_cycle;Max_cycle;Signal;HPM_P1;HPM_P2
2024/01/01 00:01:45;;;;;;;10.05;6.93;;;4.60;99.90;;;;;;5054923;28;20304;-80
2024/01/01 00:04:12;;;;;;;8.73;5.57;;;4.60;99.90;;;;;;5050509;28;20203;-81
2024/01/01 00:06:39;;;;;;;5.85;4.55;;;4.50;99.90;;;;;;5047036;28;20562;-81
2024/01/01 00:09:07;;;;;;;7.43;4.40;;;4.60;99.90;;;;;;5047213;28;20211;-81
2024/01/01 00:11:34;;;;;;;3.70;3.25;;;4.90;99.90;;;;;;5050321;28;20673;-81
2024/01/01 00:14:01;;;;;;;8.15;3.55;;;4.80;99.90;;;;;;5043796;28;20214;-81
2024/01/01 00:16:27;;;;;;;3.50;3.05;;;4.80;99.90;;;;;;5047752;28;20806;-81
2024/01/01 00:18:54;;;;;;;3.13;2.53;;;4.90;99.90;;;;;;5045543;28;20271;-80
2024/01/01 00:21:21;;;;;;;4.32;3.15;;;4.90;99.90;;;;;;5043206;27;20284;-81
2024/01/01 00:23:48;;;;;;;3.95;2.80;;;4.90;99.90;;;;;;5047132;28;20191;-81
2024/01/01 00:26:16;;;;;;;8.10;5.03;;;4.90;99.90;;;;;;5040732;28;20620;-80
2024/01/01 00:28:43;;;;;;;5.70;4.00;;;4.90;99.90;;;;;;5044295;28;20281;-80
2024/01/01 00:31:10;;;;;;;4.82;3.85;;;4.90;99.90;;;;;;5045831;28;20226;-81
2024/01/01 00:33:37;;;;;;;5.18;4.13;;;4.90;99.90;;;;;;5047700;28;20223;-80
2024/01/01 00:36:03;;;;;;;8.63;4.30;;;5.00;99.90;;;;;;5047543;28;20704;-81
2024/01/01 00:38:30;;;;;;;4.00;3.60;;;5.10;99.90;;;;;;5046771;28;20338;-81
2024/01/01 00:40:57;;;;;;;7.75;5.43;;;5.00;99.90;;;;;;5039088;28;20196;-81
2024/01/01 00:43:25;;;;;;;14.43;5.95;;;5.00;99.90;;;;;;5040553;28;20294;-81
2024/01/01 00:45:52;;;;;;;6.20;5.25;;;5.00;99.90;;;;;;5052498;28;20558;-81
2024/01/01 00:48:19;;;;;;;5.57;4.72;;;5.00;99.90;;;;;;5058650;28;20206;-81
2024/01/01 00:50:45;;;;;;;6.53;4.72;;;5.00;99.90;;;;;;5053578;28;20229;-81
2024/01/01 00:53:12;;;;;;;11.95;5.53;;;5.00;99.90;;;;;;5053227;28;20229;-81
2024/01/01 00:55:39;;;;;;;8.73;6.60;;;5.10;99.90;;;;;;5053648;28;20298;-80
2024/01/01 00:58:07;;;;;;;13.02;7.85;;;5.10;99.90;;;;;;5056695;28;20203;-80
2024/01/01 01:00:35;;;;;;;15.98;9.65;;;5.00;99.90;;;;;;5046082;28;20225;-80
2024/01/01 01:03:02;;;;;;;10.93;7.78;;;5.00;99.90;;;;;;5048166;28;20222;-81
2024/01/01 01:05:28;;;;;;;15.68;6.45;;;4.90;99.90;;;;;;5054463;28;20195;-81
2024/01/01 01:07:55;;;;;;;7.25;4.78;;;4.80;99.90;;;;;;5050272;28;20202;-80
2024/01/01 01:10:22;;;;;;;9.85;7.10;;;4.70;99.90;;;;;;5054974;28;20295;-80
2024/01/01 01:12:50;;;;;;;11.48;5.57;;;4.70;99.90;;;;;;5046011;28;20222;-80
2024/01/01 01:15:17;;;;;;;8.30;6.32;;;4.70;99.90;;;;;;5049486;27;20237;-81
2024/01/01 01:17:45;;;;;;;14.30;6.47;;;4.70;99.90;;;;;;5046010;28;20191;-81
2024/01/01 01:20:12;;;;;;;8.25;6.40;;;4.70;99.90;;;;;;5045688;28;20538;-81
2024/01/01 01:22:39;;;;;;;8.43;5.97;;;4.80;99.90;;;;;;5044708;28;20568;-80
2024/01/01 01:25:07;;;;;;;6.28;5.05;;;4.80;99.90;;;;;;5049141;28;20206;-81
2024/01/01 01:27:34;;;;;;;8.93;7.35;;;4.80;99.90;;;;;;5048604;28;20207;-81
2024/01/01 01:30:02;;;;;;;9.43;6.15;;;4.80;99.90;;;;;;5048584;28;20251;-81
2024/01/01 01:32:29;;;;;;;8.02;6.53;;;4.80;99.90;;;;;;5047038;28;20200;-81
2024/01/01 01:34:57;;;;;;;6.57;5.13;;;4.80;99.90;;;;;;5046557;28;20644;-80
2024/01/01 01:37:23;;;;;;;9.65;5.32;;;4.90;99.90;;;;;;5038048;28;20223;-81
2024/01/01 01:39:50;;;;;;;10.90;7.45;;;4.90;99.90;;;;;;5046184;28;20214;-80
2024/01/01 01:42:17;;;;;;;8.70;5.80;;;5.10;99.90;;;;;;5034117;28;20286;-80
2024/01/01 01:44:44;;;;;;;5.93;4.20;;;5.00;99.90;;;;;;5041223;28;20211;-80
2024/01/01 01:47:12;;;;;;;5.43;3.28;;;5.00;99.90;;;;;;5049728;27;20214;-81
2024/01/01 01:49:39;;;;;;;6.50;4.28;;;5.00;99.90;;;;;;5041687;28;20230;-80
2024/01/01 01:52:09;;;;;;;5.05;3.85;;;5.00;99.90;;;;;;5041246;27;20194;-81
2024/01/01 01:54:37;;;;;;;8.45;4.35;;;5.10;99.90;;;;;;5035587;28;20248;-80
2024/01/01 01:57:05;;;;;;;6.55;4.53;;;5.00;99.90;;;;;;5054009;27;20233;-80
2024/01/01 01:59:32;;;;;;;6.80;3.55;;;4.90;99.90;;;;;;5034409;28;20199;-80
2024/01/01 02:02:00;;;;;;;3.90;3.50;;;5.00;99.90;;;;;;5034757;28;20657;-81
2024/01/01 02:04:27;;;;;;;3.72;3.40;;;4.90;99.90;;;;;;5052865;28;20630;-80
2024/01/01 02:06:55;;;;;;;5.10;3.33;;;4.90;99.90;;;;;;5041342;28;20203;-80
2024/01/01 02:09:25;;;;;;;4.60;3.50;;;4.90;99.90;;;;;;5049680;28;20207;-81
2024/01/01 02:11:52;;;;;;;8.95;3.92;;;4.90;99.90;;;;;;5045146;28;20215;-81
2024/01/01 02:14:20;;;;;;;4.40;3.75;;;5.00;99.90;;;;;;5048105;28;20199;-80
2024/01/01 02:16:48;;;;;;;4.35;3.33;;;5.00;99.90;;;;;;5045740;27;20231;-81
2024/01/01 02:19:20;;;;;;;3.78;2.60;;;5.00;99.90;;;;;;5042413;28;20590;-81
2024/01/01 02:21:47;;;;;;;3.55;3.17;;;5.00;99.90;;;;;;5050471;28;20210;-81
2024/01/01 02:24:16;;;;;;;7.68;4.00;;;5.00;99.90;;;;;;5046003;28;20200;-81
2024/01/01 02:26:44;;;;;;;3.38;3.08;;;5.10;99.90;;;;;;5040143;28;20243;-81
2024/01/01 02:29:12;;;;;;;5.38;3.03;;;5.00;99.90;;;;;;5038987;28;20227;-81
2024/01/01 02:31:39;;;;;;;3.28;2.95;;;5.00;99.90;;;;;;5037350;27;20209;-81
2024/01/01 02:34:07;;;;;;;3.13;2.38;;;4.80;99.90;;;;;;5036431;28;20311;-81
2024/01/01 02:36:36;;;;;;;5.00;3.72;;;4.80;99.90;;;;;;5038551;27;20234;-81
2024/01/01 02:39:05;;;;;;;3.55;2.85;;;4.90;99.90;;;;;;5030464;28;20197;-80
2024/01/01 02:41:35;;;;;;;3.45;2.10;;;4.90;99.90;;;;;;5039856;28;20200;-81
2024/01/01 02:44:03;;;;;;;4.03;2.72;;;4.80;99.90;;;;;;5038011;28;20206;-81
2024/01/01 02:46:30;;;;;;;3.50;2.75;;;4.80;99.90;;;;;;5059545;28;20209;-80
2024/01/01 02:48:58;;;;;;;5.47;3.50;;;4.80;99.90;;;;;;5029604;28;20590;-81
2024/01/01 02:51:25;;;;;;;6.20;4.03;;;4.80;99.90;;;;;;5054280;28;20207;-81
2024/01/01 02:53:52;;;;;;;8.70;3.33;;;4.80;99.90;;;;;;5046608;28;20233;-81
2024/01/01 02:56:20;;;;;;;5.07;4.13;;;4.80;99.90;;;;;;5054707;27;20230;-80
2024/01/01 02:58:48;;;;;;;3.38;3.05;;;4.80;99.90;;;;;;5053321;28;20647;-81
2024/01/01 03:01:15;;;;;;;6.72;4.90;;;4.80;99.90;;;;;;5056667;28;20628;-80
2024/01/01 03:03:42;;;;;;;6.80;3.15;;;4.70;99.90;;;;;;5046441;28;20306;-81
2024/01/01 03:06:09;;;;;;;3.67;3.22;;;4.70;99.90;;;;;;5054338;28;20548;-81
2024/01/01 03:08:37;;;;;;;7.82;3.45;;;4.60;99.90;;;;;;5043809;28;20218;-80
2024/01/01 03:11:05;;;;;;;5.30;3.70;;;4.60;99.90;;;;;;5048623;28;20294;-81
2024/01/01 03:13:33;;;;;;;3.10;2.83;;;4.60;99.90;;;;;;5043157;28;20213;-80
2024/01/01 03:16:04;;;;;;;6.07;4.10;;;4.60;99.90;;;;;;5047152;28;20231;-81
2024/01/01 03:18:31;;;;;;;4.70;3.22;;;4.60;99.90;;;;;;5048602;28;20202;-80
2024/01/01 03:20:58;;;;;;;3.85;3.55;;;4.50;99.90;;;;;;5045657;27;20208;-81
2024/01/01 03:23:25;;;;;;;3.65;3.33;;;4.50;99.90;;;;;;5065107;27;20208;-81
2024/01/01 03:25:53;;;;;;;4.30;3.05;;;4.60;99.90;;;;;;5080692;27;20206;-81
2024/01/01 03:28:20;;;;;;;6.60;5.13;;;4.60;99.90;;;;;;5065434;27;20282;-80
2024/01/01 03:30:48;;;;;;;3.63;3.17;;;4.60;99.90;;;;;;5071267;27;20222;-80
2024/01/01 03:33:17;;;;;;;5.32;3.78;;;4.60;99.90;;;;;;5082423;27;20208;-81
2024/01/01 03:35:45;;;;;;;5.97;4.15;;;4.80;99.90;;;;;;5057422;27;20196;-80
2024/01/01 03:38:12;;;;;;;4.57;3.47;;;4.80;99.90;;;;;;5045266;28;20203;-81
2024/01/01 03:40:40;;;;;;;5.28;3.67;;;4.80;99.90;;;;;;5051329;28;20199;-81
2024/01/01 03:43:07;;;;;;;3.05;2.75;;;4.80;99.90;;;;;;5047552;28;20720;-81
2024/01/01 03:45:35;;;;;;;3.45;2.80;;;4.80;99.90;;;;;;5040223;27;20207;-80
2024/01/01 03:48:03;;;;;;;3.95;2.30;;;4.80;99.90;;;;;;5041918;28;20211;-81
2024/01/01 03:50:32;;;;;;;2.60;2.38;;;4.80;99.90;;;;;;5041384;28;20696;-80
2024/01/01 03:52:59;;;;;;;2.55;2.25;;;4.80;99.90;;;;;;5043605;28;20202;-79
2024/01/01 03:55:27;;;;;;;5.05;2.15;;;4.80;99.90;;;;;;5043270;27;20679;-80
2024/01/01 03:57:53;;;;;;;2.58;1.45;;;4.90;99.90;;;;;;5034475;28;20322;-80
2024/01/01 04:00:20;;;;;;;1.50;1.40;;;4.80;99.90;;;;;;5035585;28;20196;-81
2024/01/01 04:02:48;;;;;;;2.38;1.83;;;4.70;99.90;;;;;;5035642;28;20200;-82
2024/01/01 04:05:15;;;;;;;1.42;1.33;;;4.70;99.90;;;;;;5034148;28;20593;-81
2024/01/01 04:07:43;;;;;;;1.60;1.45;;;4.70;99.90;;;;;;5038520;28;20277;-82
2024/01/01 04:10:10;;;;;;;2.00;1.77;;;4.80;99.90;;;;;;5050133;27;20732;-82
2024/01/01 04:12:37;;;;;;;4.32;1.60;;;4.70;99.90;;;;;;5060644;27;20200;-82
2024/01/01 04:15:05;;;;;;;2.60;1.23;;;4.70;99.90;;;;;;5048361;28;20211;-81
2024/01/01 04:17:32;;;;;;;4.22;1.20;;;4.60;99.90;;;;;;5052890;27;20215;-81
2024/01/01 04:19:59;;;;;;;1.98;1.20;;;4.60;99.90;;;;;;5045734;28;20210;-81
2024/01/01 04:22:26;;;;;;;1.25;1.15;;;4.60;99.90;;;;;;5044397;28;20201;-80
2024/01/01 04:24:54;;;;;;;1.45;1.33;;;4.70;99.90;;;;;;5049359;28;20593;-81
2024/01/01 04:27:21;;;;;;;1.05;0.75;;;4.70;99.90;;;;;;5056024;28;20191;-80
2024/01/01 04:29:48;;;;;;;0.85;0.85;;;4.60;99.90;;;;;;5050891;27;20297;-81
2024/01/01 04:32:15;;;;;;;1.13;1.13;;;4.70;99.90;;;;;;5052769;28;20209;-81
2024/01/01 04:34:42;;;;;;;5.75;2.17;;;4.80;99.90;;;;;;5054818;28;20213;-80
2024/01/01 04:37:08;;;;;;;1.10;1.00;;;4.80;99.90;;;;;;5050103;28;20688;-80
2024/01/01 04:39:35;;;;;;;0.80;0.80;;;4.80;99.90;;;;;;5049592;28;20217;-80
2024/01/01 04:42:04;;;;;;;1.48;0.70;;;4.70;99.90;;;;;;5043048;28;20212;-81
2024/01/01 04:44:31;;;;;;;1.30;1.02;;;4.80;99.90;;;;;;5045064;28;20198;-80
2024/01/01 04:46:57;;;;;;;1.15;1.00;;;4.70;99.90;;;;;;5049823;28;20210;-81
2024/01/01 04:49:24;;;;;;;1.95;1.00;;;4.60;99.90;;;;;;5049173;28;20735;-80
2024/01/01 04:51:51;;;;;;;0.90;0.90;;;4.70;99.90;;;;;;5049529;28;20620;-80
2024/01/01 04:54:18;;;;;;;3.58;0.80;;;4.70;99.90;;;;;;5044200;28;20617;-80
2024/01/01 04:56:45;;;;;;;1.50;1.40;;;4.50;99.90;;;;;;5048135;28;20607;-80
2024/01/01 04:59:13;;;;;;;1.45;1.35;;;4.60;99.90;;;;;;5047107;28;20209;-81
2024/01/01 05:01:40;;;;;;;1.25;1.08;;;4.60;99.90;;;;;;5039620;28;20193;-80
2024/01/01 05:04:07;;;;;;;0.88;0.88;;;4.60;99.90;;;;;;5040383;28;20214;-81
2024/01/01 05:06:33;;;;;;;0.93;0.73;;;4.70;99.90;;;;;;5041379;28;20211;-80
2024/01/01 05:09:00;;;;;;;2.80;0.80;;;4.70;99.90;;;;;;5058330;28;20213;-81
2024/01/01 05:11:29;;;;;;;1.02;0.70;;;4.60;99.90;;;;;;5044896;28;20232;-82
2024/01/01 05:13:56;;;;;;;2.67;1.10;;;4.60;99.90;;;;;;5051214;28;20218;-80
2024/01/01 05:16:24;;;;;;;0.60;0.60;;;4.60;99.90;;;;;;5055393;28;20226;-80
2024/01/01 05:18:50;;;;;;;1.08;0.73;;;4.50;99.90;;;;;;5055979;28;20194;-80
2024/01/01 05:21:17;;;;;;;0.50;0.50;;;4.40;99.90;;;;;;5052593;28;20278;-80
2024/01/01 05:23:44;;;;;;;5.18;1.35;;;4.40;99.90;;;;;;5049702;28;20218;-80
2024/01/01 05:26:11;;;;;;;0.40;0.40;;;4.40;99.90;;;;;;5053374;28;20199;-81
2024/01/01 05:28:37;;;;;;;1.48;0.40;;;4.40;99.90;;;;;;5035865;28;20199;-80
2024/01/01 05:31:05;;;;;;;0.50;0.43;;;4.40;99.90;;;;;;5042932;28;20603;-81
2024/01/01 05:33:32;;;;;;;0.85;0.85;;;4.40;99.90;;;;;;5047363;27;20198;-80
2024/01/01 05:35:59;;;;;;;1.65;1.05;;;4.40;99.90;;;;;;5044030;28;20199;-80
2024/01/01 05:38:25;;;;;;;0.82;0.82;;;4.40;99.90;;;;;;5044646;28;20232;-80
2024/01/01 05:40:52;;;;;;;0.63;0.60;;;4.50;99.90;;;;;;5051008;28;20735;-81
2024/01/01 05:43:21;;;;;;;0.77;0.77;;;4.50;99.90;;;;;;5037725;28;20205;-81
2024/01/01 05:45:48;;;;;;;0.88;0.88;;;4.50;99.90;;;;;;5048797;28;20250;-81
2024/01/01 05:48:15;;;;;;;0.70;0.70;;;4.30;99.90;;;;;;5045506;28;20219;-81
2024/01/01 05:50:43;;;;;;;1.70;1.30;;;4.30;99.90;;;;;;5038144;28;20206;-81
2024/01/01 05:53:10;;;;;;;1.45;0.90;;;4.20;99.90;;;;;;5042871;28;20291;-81
2024/01/01 05:55:37;;;;;;;0.88;0.80;;;4.30;99.90;;;;;;5038369;28;20207;-81
2024/01/01 05:58:03;;;;;;;2.42;1.23;;;4.40;99.90;;;;;;5036127;28;20612;-81
2024/01/01 06:00:36;;;;;;;1.70;1.30;;;4.40;99.90;;;;;;5035997;28;20203;-81
2024/01/01 06:03:03;;;;;;;0.57;0.57;;;4.40;99.90;;;;;;5044014;28;20668;-81
2024/01/01 06:05:33;;;;;;;1.05;0.73;;;4.30;99.90;;;;;;5041079;28;20266;-82
2024/01/01 06:08:02;;;;;;;0.88;0.80;;;4.30;99.90;;;;;;5043579;28;20211;-81
2024/01/01 06:10:28;;;;;;;1.67;0.90;;;4.30;99.90;;;;;;5036805;28;20644;-81
2024/01/01 06:12:56;;;;;;;0.93;0.55;;;4.20;99.90;;;;;;5048913;28;20208;-81
2024/01/01 06:15:23;;;;;;;0.65;0.60;;;4.10;99.90;;;;;;5058014;28;20206;-81
2024/01/01 06:17:50;;;;;;;1.08;0.93;;;4.10;99.90;;;;;;5043316;28;20254;-81
2024/01/01 06:20:17;;;;;;;2.05;0.38;;;4.20;99.90;;;;;;5044930;28;20204;-81
2024/01/01 06:22:44;;;;;;;1.23;1.13;;;4.20;99.90;;;;;;5044494;28;20212;-81
2024/01/01 06:25:12;;;;;;;1.50;1.40;;;4.20;99.90;;;;;;5047001;28;20231;-81
2024/01/01 06:27:39;;;;;;;1.92;1.05;;;4.20;99.90;;;;;;5039296;28;20652;-81
2024/01/01 06:30:09;;;;;;;0.90;0.85;;;4.20;99.90;;;;;;5043670;28;20580;-81
2024/01/01 06:32:36;;;;;;;1.02;0.95;;;4.10;99.90;;;;;;5049852;28;20210;-81
2024/01/01 06:35:03;;;;;;;5.57;0.98;;;4.10;99.90;;;;;;5044272;28;20227;-82
2024/01/01 06:37:30;;;;;;;0.85;0.85;;;4.10;99.90;;;;;;5045572;28;20226;-82
2024/01/01 06:39:57;;;;;;;1.70;0.93;;;4.10;99.90;;;;;;5040218;28;20204;-81
2024/01/01 06:42:25;;;;;;;1.08;0.77;;;4.10;99.90;;;;;;5039410;28;20508;-81
2024/01/01 06:44:52;;;;;;;0.55;0.55;;;4.10;99.90;;;;;;5043852;28;20211;-81
2024/01/01 06:47:19;;;;;;;1.25;1.10;;;4.10;99.90;;;;;;5048925;27;20213;-81
2024/01/01 06:49:45;;;;;;;1.23;1.05;;;4.20;99.90;;;;;;5050913;28;20290;-81
2024/01/01 06:52:12;;;;;;;0.65;0.45;;;4.30;99.90;;;;;;5046692;28;20624;-81
2024/01/01 06:54:41;;;;;;;1.38;1.17;;;4.20;99.90;;;;;;5045424;28;20202;-81
2024/01/01 06:57:08;;;;;;;0.57;0.50;;;4.30;99.90;;;;;;5039657;28;20254;-81
2024/01/01 06:59:36;;;;;;;1.67;0.85;;;4.20;99.90;;;;;;5043009;28;20691;-80
2024/01/01 07:02:03;;;;;;;1.60;1.50;;;4.20;99.90;;;;;;5042225;28;20200;-81
2024/01/01 07:04:30;;;;;;;1.15;0.47;;;4.20;99.90;;;;;;5045118;28;20199;-81
2024/01/01 07:06:57;;;;;;;0.65;0.65;;;4.30;99.90;;;;;;5044097;28;20206;-81
2024/01/01 07:09:24;;;;;;;0.73;0.73;;;4.30;99.90;;;;;;5043903;28;20210;-82
2024/01/01 07:11:50;;;;;;;0.60;0.60;;;4.30;99.90;;;;;;5041130;28;20294;-81
2024/01/01 07:14:17;;;;;;;2.63;0.63;;;4.20;99.90;;;;;;5049972;28;20647;-81
2024/01/01 07:16:45;;;;;;;1.25;0.80;;;4.20;99.90;;;;;;5046226;28;20554;-81
2024/01/01 07:19:12;;;;;;;0.77;0.52;;;4.10;99.90;;;;;;5048991;28;20222;-83
2024/01/01 07:21:39;;;;;;;1.45;0.50;;;4.10;99.90;;;;;;5049463;28;20294;-82
2024/01/01 07:24:06;;;;;;;0.70;0.55;;;4.10;99.90;;;;;;5055908;28;20332;-82
2024/01/01 07:26:33;;;;;;;0.47;0.40;;;4.00;99.90;;;;;;5054467;28;20210;-81
2024/01/01 07:29:00;;;;;;;3.53;0.95;;;4.10;99.90;;;;;;5047943;28;20213;-81
2024/01/01 07:31:27;;;;;;;0.60;0.50;;;4.20;99.90;;;;;;5057017;27;20797;-81
2024/01/01 07:33:55;;;;;;;1.10;1.00;;;4.20;99.90;;;;;;5054858;27;20281;-81
2024/01/01 07:36:22;;;;;;;1.30;0.60;;;4.20;99.90;;;;;;5053558;28;20567;-81
2024/01/01 07:38:49;;;;;;;1.25;0.90;;;4.10;99.90;;;;;;5041837;27;20227;-82
2024/01/01 07:41:16;;;;;;;0.40;0.40;;;4.10;99.90;;;;;;5042723;28;20206;-82
2024/01/01 07:43:42;;;;;;;3.05;0.85;;;4.00;99.90;;;;;;5052073;28;20752;-82
2024/01/01 07:46:10;;;;;;;0.45;0.45;;;4.00;99.90;;;;;;5046586;28;20555;-82
2024/01/01 07:48:37;;;;;;;2.42;0.98;;;4.00;99.90;;;;;;5049840;28;20739;-82
2024/01/01 07:51:05;;;;;;;4.22;0.70;;;4.10;99.90;;;;;;5042851;27;20195;-83
2024/01/01 07:53:32;;;;;;;0.70;0.68;;;4.10;99.90;;;;;;5046335;28;20289;-77
2024/01/01 07:56:02;;;;;;;2.30;1.45;;;4.20;99.90;;;;;;5042389;28;20779;-78
2024/01/01 07:58:29;;;;;;;2.88;0.73;;;4.20;99.90;;;;;;5044928;28;20653;-76
2024/01/01 08:00:56;;;;;;;2.00;1.30;;;4.20;99.90;;;;;;5041230;28;20213;-75
2024/01/01 08:03:23;;;;;;;0.85;0.60;;;4.20;99.90;;;;;;5048188;28;20199;-75
2024/01/01 08:05:50;;;;;;;2.35;1.50;;;4.20;99.90;;;;;;5040977;28;20629;-75
2024/01/01 08:08:18;;;;;;;3.60;1.27;;;4.20;99.90;;;;;;5038828;28;20214;-73
2024/01/01 08:10:45;;;;;;;0.40;0.32;;;4.30;99.90;;;;;;5043357;28;20818;-76
2024/01/01 08:13:12;;;;;;;2.88;0.93;;;4.30;99.90;;;;;;5042948;28;20198;-75
2024/01/01 08:15:38;;;;;;;0.60;0.40;;;4.30;99.90;;;;;;5045954;28;20288;-74
2024/01/01 08:18:06;;;;;;;1.88;1.20;;;4.40;99.90;;;;;;5059951;28;20235;-75
2024/01/01 08:20:33;;;;;;;1.33;0.70;;;4.40;99.90;;;;;;5054604;28;20264;-77
2024/01/01 08:23:00;;;;;;;0.68;0.40;;;4.40;99.90;;;;;;5058741;28;20211;-73
2024/01/01 08:25:28;;;;;;;0.88;0.50;;;4.30;99.90;;;;;;5045347;28;20211;-73
2024/01/01 08:27:55;;;;;;;2.25;0.52;;;4.40;99.90;;;;;;5054183;28;20216;-73
2024/01/01 08:30:21;;;;;;;0.70;0.55;;;4.40;99.90;;;;;;5056141;28;20320;-79
2024/01/01 08:32:48;;;;;;;0.70;0.52;;;4.50;99.90;;;;;;5057132;28;20198;-77
2024/01/01 08:35:15;;;;;;;4.97;1.02;;;4.60;99.90;;;;;;5049722;28;20204;-75
2024/01/01 08:37:43;;;;;;;0.73;0.57;;;4.60;99.90;;;;;;5050096;28;20557;-75
2024/01/01 08:40:11;;;;;;;1.08;0.60;;;4.70;99.90;;;;;;5041427;28;20729;-75
2024/01/01 08:42:39;;;;;;;1.08;1.08;;;4.80;99.90;;;;;;5037794;28;20226;-76
2024/01/01 08:45:07;;;;;;;2.28;0.80;;;4.90;99.90;;;;;;5039005;28;20213;-75
2024/01/01 08:47:34;;;;;;;3.90;0.73;;;4.90;99.90;;;;;;5034623;28;20755;-74
2024/01/01 08:50:01;;;;;;;1.23;0.55;;;5.10;99.90;;;;;;5058668;27;20218;-73
2024/01/01 08:52:28;;;;;;;2.78;0.60;;;5.20;99.90;;;;;;5042592;28;20979;-74
2024/01/01 08:54:54;;;;;;;0.95;0.70;;;5.20;99.90;;;;;;5046911;28;20676;-72
2024/01/01 08:57:21;;;;;;;0.40;0.40;;;5.30;99.90;;;;;;5037687;28;20647;-73
2024/01/01 08:59:49;;;;;;;2.15;1.00;;;5.40;99.90;;;;;;5042005;28;20768;-73
2024/01/01 09:02:16;;;;;;;0.30;0.30;;;5.40;99.90;;;;;;5038179;28;20275;-72
2024/01/01 09:04:43;;;;;;;5.68;0.93;;;5.50;99.90;;;;;;5040919;28;20324;-73
2024/01/01 09:07:10;;;;;;;1.10;0.70;;;5.50;99.90;;;;;;5032013;28;20231;-73
2024/01/01 09:09:37;;;;;;;0.40;0.30;;;5.70;99.90;;;;;;5039533;28;20211;-73
2024/01/01 09:12:04;;;;;;;1.20;1.10;;;5.70;99.90;;;;;;5051459;27;20203;-73
2024/01/01 09:14:31;;;;;;;3.35;0.63;;;5.70;99.90;;;;;;5043487;28;20279;-74
2024/01/01 09:16:59;;;;;;;0.63;0.60;;;5.90;99.90;;;;;;5061168;28;20200;-73
2024/01/01 09:19:26;;;;;;;0.93;0.50;;;5.90;99.90;;;;;;5051038;28;20224;-75
2024/01/01 09:21:52;;;;;;;0.98;0.65;;;6.00;99.90;;;;;;5054260;28;20196;-76
2024/01/01 09:24:19;;;;;;;0.80;0.35;;;6.10;99.90;;;;;;5046718;28;20203;-75
2024/01/01 09:26:47;;;;;;;0.60;0.60;;;6.20;99.90;;;;;;5057341;28;20204;-75
2024/01/01 09:29:14;;;;;;;4.95;2.30;;;6.20;99.90;;;;;;5043471;28;20200;-75
2024/01/01 09:31:40;;;;;;;2.95;0.40;;;6.20;99.90;;;;;;5042582;28;20291;-76
2024/01/01 09:34:08;;;;;;;1.30;0.60;;;6.20;99.90;;;;;;5051822;28;20204;-76
2024/01/01 09:36:35;;;;;;;0.95;0.95;;;6.10;99.90;;;;;;5056037;28;20205;-76
2024/01/01 09:39:02;;;;;;;1.30;0.55;;;6.20;99.90;;;;;;5050134;28;20260;-76
2024/01/01 09:41:29;;;;;;;1.55;0.50;;;6.30;99.90;;;;;;5055490;28;20204;-76
2024/01/01 09:43:56;;;;;;;1.65;0.60;;;6.30;99.90;;;;;;5052554;28;20207;-75
2024/01/01 09:46:24;;;;;;;2.33;1.08;;;6.30;99.90;;;;;;5046412;27;20273;-74
2024/01/01 09:48:51;;;;;;;0.60;0.50;;;6.30;99.90;;;;;;5048245;27;20311;-75
2024/01/01 09:51:19;;;;;;;0.30;0.30;;;6.40;99.90;;;;;;5045669;28;20207;-74
2024/01/01 09:53:46;;;;;;;0.50;0.40;;;6.40;99.90;;;;;;5039713;27;20339;-75
2024/01/01 09:56:13;;;;;;;0.50;0.43;;;6.30;99.90;;;;;;5032317;28;20388;-75
2024/01/01 09:58:41;;;;;;;0.30;0.30;;;6.30;99.90;;;;;;5040291;27;20588;-74
2024/01/01 10:01:12;;;;;;;0.47;0.47;;;6.50;99.90;;;;;;5033759;27;20241;-74
2024/01/01 10:03:39;;;;;;;0.40;0.30;;;6.40;99.90;;;;;;5042747;27;20224;-74
2024/01/01 10:06:10;;;;;;;4.72;0.35;;;6.50;99.60;;;;;;5033001;27;20209;-74
2024/01/01 10:08:38;;;;;;;2.78;0.73;;;6.50;99.20;;;;;;5040053;27;20197;-74
2024/01/01 10:11:17;;;;;;;1.48;0.63;;;6.50;99.20;;;;;;5031584;27;20208;-74
2024/01/01 10:13:44;;;;;;;1.05;0.40;;;6.50;99.70;;;;;;5031460;27;20200;-74
2024/01/01 10:16:11;;;;;;;0.98;0.50;;;6.50;99.10;;;;;;5052358;28;20212;-74
2024/01/01 10:18:37;;;;;;;1.30;0.52;;;6.60;99.40;;;;;;5052839;28;20726;-74
2024/01/01 10:21:12;;;;;;;0.65;0.60;;;6.50;98.70;;;;;;5051296;27;20200;-74
2024/01/01 10:23:40;;;;;;;0.70;0.70;;;6.60;98.50;;;;;;5050085;28;20211;-73
2024/01/01 10:26:09;;;;;;;3.95;0.50;;;6.50;98.30;;;;;;5038559;28;20292;-73
2024/01/01 10:28:36;;;;;;;0.63;0.63;;;6.70;98.60;;;;;;5043208;28;20267;-74
2024/01/01 10:31:03;;;;;;;0.65;0.45;;;6.60;98.40;;;;;;5051360;27;20203;-74
2024/01/01 10:33:32;;;;;;;0.43;0.38;;;6.70;98.60;;;;;;5050083;28;20259;-74
2024/01/01 10:36:01;;;;;;;2.10;0.57;;;6.60;98.20;;;;;;5042026;27;20213;-74
2024/01/01 10:38:29;;;;;;;0.70;0.45;;;6.60;98.30;;;;;;5044668;28;20223;-74
2024/01/01 10:40:59;;;;;;;0.50;0.30;;;6.70;98.20;;;;;;5045211;28;20523;-74
2024/01/01 10:43:27;;;;;;;0.70;0.60;;;6.80;98.20;;;;;;5052470;27;20200;-74
2024/01/01 10:46:01;;;;;;;0.73;0.50;;;6.80;98.30;;;;;;5044888;27;20289;-74
2024/01/01 10:48:27;;;;;;;0.98;0.63;;;6.90;98.00;;;;;;5051107;27;20208;-74
2024/01/01 10:51:04;;;;;;;0.73;0.30;;;6.90;98.30;;;;;;5053726;27;20207;-73
2024/01/01 10:53:47;;;;;;;0.40;0.40;;;6.90;98.00;;;;;;5046221;28;20204;-74
2024/01/01 10:56:25;;;;;;;0.75;0.63;;;7.00;97.60;;;;;;5042896;27;20204;-74
2024/01/01 10:59:03;;;;;;;2.45;0.90;;;7.00;97.50;;;;;;5044790;27;20230;-74
2024/01/01 11:01:30;;;;;;;5.35;0.50;;;7.00;97.60;;;;;;5046641;27;20285;-74
2024/01/01 11:03:57;;;;;;;0.40;0.40;;;7.10;96.90;;;;;;5045906;27;20203;-74
2024/01/01 11:06:28;;;;;;;1.27;0.50;;;7.10;97.10;;;;;;5039701;27;20201;-74
2024/01/01 11:08:56;;;;;;;0.68;0.57;;;7.10;97.10;;;;;;5036434;27;20573;-75
2024/01/01 11:11:26;;;;;;;6.32;0.90;;;7.20;97.30;;;;;;5029103;28;20205;-75
2024/01/01 11:13:54;;;;;;;2.05;1.00;;;7.30;96.00;;;;;;5039393;28;20205;-76
2024/01/01 11:16:23;;;;;;;4.75;1.48;;;7.30;96.10;;;;;;5050329;28;20199;-75
2024/01/01 11:18:50;;;;;;;0.60;0.60;;;7.40;95.80;;;;;;5053958;28;20586;-75
2024/01/01 11:21:32;;;;;;;1.77;0.80;;;7.30;95.80;;;;;;5056018;28;20634;-74
2024/01/01 11:24:01;;;;;;;1.60;0.85;;;7.30;96.00;;;;;;5057433;28;20626;-74
2024/01/01 11:26:34;;;;;;;0.70;0.60;;;7.40;95.90;;;;;;5055976;27;20396;-74
2024/01/01 11:29:03;;;;;;;0.53;0.40;;;7.50;95.60;;;;;;5044007;27;20619;-74
2024/01/01 11:31:31;;;;;;;0.40;0.40;;;7.60;95.00;;;;;;5057447;28;21039;-75
2024/01/01 11:34:06;;;;;;;3.03;1.70;;;7.70;95.60;;;;;;5050410;28;20628;-75
2024/01/01 11:36:33;;;;;;;5.27;1.33;;;7.60;94.60;;;;;;5045881;28;20922;-74
2024/01/01 11:39:01;;;;;;;0.30;0.30;;;7.60;94.70;;;;;;5042044;28;20677;-74
2024/01/01 11:41:32;;;;;;;1.90;0.50;;;7.50;94.00;;;;;;5042239;28;20626;-74
2024/01/01 11:44:09;;;;;;;0.53;0.50;;;7.50;94.60;;;;;;5047875;27;20637;-74
2024/01/01 11:46:36;;;;;;;1.03;0.87;;;7.60;94.80;;;;;;5052809;28;20744;-75
2024/01/01 11:49:03;;;;;;;1.15;0.60;;;7.70;95.20;;;;;;5042503;28;21224;-74
2024/01/01 11:51:32;;;;;;;1.13;0.70;;;7.70;94.90;;;;;;5048625;28;20196;-74
2024/01/01 11:54:06;;;;;;;0.77;0.57;;;7.80;94.30;;;;;;5046452;28;20640;-74
2024/01/01 11:56:35;;;;;;;3.97;0.73;;;7.90;93.80;;;;;;5046556;28;20654;-74
2024/01/01 11:59:03;;;;;;;1.23;1.13;;;7.90;94.20;;;;;;5046879;27;20665;-74
2024/01/01 12:01:30;;;;;;;1.63;0.70;;;8.00;93.90;;;;;;5046084;28;20627;-74
2024/01/01 12:04:00;;;;;;;0.70;0.70;;;7.90;93.90;;;;;;5043656;28;21165;-74
2024/01/01 12:06:28;;;;;;;2.13;1.13;;;8.10;94.10;;;;;;5039337;28;21182;-74
2024/01/01 12:09:06;;;;;;;5.50;1.40;;;8.10;93.60;;;;;;5044175;27;20634;-74
2024/01/01 12:11:34;;;;;;;1.00;0.97;;;8.10;92.90;;;;;;5041821;27;21015;-74
2024/01/01 12:14:01;;;;;;;1.37;0.60;;;8.10;93.50;;;;;;5030480;27;20722;-73
2024/01/01 12:16:29;;;;;;;3.33;0.80;;;8.10;93.10;;;;;;5061972;27;20644;-73
2024/01/01 12:18:57;;;;;;;0.83;0.57;;;8.10;93.20;;;;;;5046298;28;20666;-76
2024/01/01 12:21:24;;;;;;;3.43;1.00;;;8.10;93.20;;;;;;5047047;28;21186;-75
2024/01/01 12:24:03;;;;;;;1.60;0.70;;;8.00;92.80;;;;;;5052639;28;20625;-74
2024/01/01 12:26:31;;;;;;;2.03;0.70;;;8.00;93.20;;;;;;5045755;28;20622;-73
2024/01/01 12:29:14;;;;;;;2.33;2.13;;;8.10;93.70;;;;;;5055977;28;20874;-74
2024/01/01 12:31:42;;;;;;;0.73;0.40;;;8.00;93.30;;;;;;5058431;28;20626;-74
2024/01/01 12:34:12;;;;;;;1.53;0.83;;;7.80;94.00;;;;;;5055880;28;21159;-72
2024/01/01 12:36:39;;;;;;;9.80;1.17;;;7.80;94.70;;;;;;5053997;28;20671;-74
2024/01/01 12:39:06;;;;;;;1.37;0.70;;;7.80;94.50;;;;;;5048785;28;20676;-74
2024/01/01 12:41:33;;;;;;;2.23;0.83;;;7.80;95.00;;;;;;5044430;28;20626;-75
2024/01/01 12:43:59;;;;;;;1.67;1.57;;;7.80;94.90;;;;;;5044702;28;21270;-74
2024/01/01 12:46:28;;;;;;;0.40;0.20;;;7.80;95.30;;;;;;5048725;28;20633;-74
2024/01/01 12:48:55;;;;;;;0.53;0.50;;;7.80;95.00;;;;;;5044764;27;20646;-74
2024/01/01 12:51:24;;;;;;;1.20;1.00;;;7.70;94.80;;;;;;5045008;27;20745;-72
2024/01/01 12:53:52;;;;;;;0.80;0.77;;;7.70;95.40;;;;;;5047811;27;20205;-74
2024/01/01 12:56:19;;;;;;;1.60;0.60;;;7.70;95.30;;;;;;5047296;27;20642;-73
2024/01/01 12:58:46;;;;;;;3.70;0.80;;;7.80;95.30;;;;;;5047975;27;20680;-73
2024/01/01 13:01:13;;;;;;;0.70;0.50;;;7.80;95.20;;;;;;5043304;27;20733;-75